Flight Track Log - Related Links

Times and Time Zones

All times are in EDT time to prevent confusion due to time zone crossing. See the UAL495 flight status page for this flight to view local times or setup timezone preferences in your user account.

Time Position Orientation Groundspeed Altitude Reporting Facility
EDT Latitude Longitude Course Direction KTS MPH feet Rate Location/Type
Mon 09:26:06 AM 33.9333 -118.4333 90° East 183 211 1,400  Level Southern California TRACON
Mon 09:27:06 AM 33.9000 -118.5000 239° Southwest 235 270 3,600 2,289 Climbing Southern California TRACON
Mon 09:27:22 AM 33.8892 -118.5139 227° Southwest 238 274 4,300 2,805 Climbing Los Angeles Center
Mon 09:28:00 AM 33.7830 -118.6440 132° Southeast  Level FlightAware Approximate
Mon 09:28:23 AM 33.8283 -118.5611 213° Southwest 277 319 7,200  Level Los Angeles Center
Mon 09:29:00 AM 33.7038 -118.5422 134° Southeast  Level FlightAware Approximate
Mon 09:29:24 AM 33.7522 -118.5347 164° South 288 331 10,200  Level Los Angeles Center
Mon 09:30:00 AM 33.6660 -118.4150 116° Southeast  Level FlightAware Approximate
Mon 09:30:25 AM 33.6831 -118.4883 151° Southeast 320 368 12,400  Level Los Angeles Center
Mon 09:31:00 AM 33.6334 -118.2847 90° East  Level FlightAware Approximate
Mon 09:31:27 AM 33.6572 -118.3836 106° East 335 386 14,600  Level Los Angeles Center
Mon 09:32:28 AM 33.6514 -118.2706 94° East 362 417 16,500 1,721 Climbing Los Angeles Center
Mon 09:33:29 AM 33.7414 -118.1583 46° Northeast 408 470 18,100 1,623 Climbing Los Angeles Center
Mon 09:34:30 AM 33.8261 -118.0633 43° Northeast 420 483 19,800 1,918 Climbing Los Angeles Center
Mon 09:35:31 AM 33.9172 -117.9656 42° Northeast 439 505 22,000 1,902 Climbing Los Angeles Center
Mon 09:36:33 AM 34.0089 -117.8653 42° Northeast 446 513 23,700 1,561 Climbing Los Angeles Center
Mon 09:37:34 AM 34.1022 -117.7606 43° Northeast 457 526 25,200 1,525 Climbing Los Angeles Center
Mon 09:38:35 AM 34.1892 -117.6428 48° Northeast 470 541 26,800 1,707 Climbing Los Angeles Center
Mon 09:39:37 AM 34.2761 -117.5231 49° Northeast 474 545 28,700 2,146 Climbing Los Angeles Center
Mon 09:40:38 AM 34.3758 -117.3817 49° Northeast 463 533 31,200 1,820 Climbing Los Angeles Center
Mon 09:41:39 AM 34.4439 -117.2792 51° Northeast 457 526 32,400 1,317 Climbing Los Angeles Center
Mon 09:42:41 AM 34.5244 -117.1611 50° Northeast 458 527 33,900 1,512 Climbing Los Angeles Center
Mon 09:43:42 AM 34.6194 -117.0219 50° Northeast 452 520 35,500 1,268 Climbing Los Angeles Center
Mon 09:44:44 AM 34.6997 -116.9069 50° Northeast 450 518 36,500 732 Climbing Los Angeles Center
Mon 09:45:45 AM 34.7778 -116.7886 51° Northeast 450 518 37,000 244 Climbing Los Angeles Center
Mon 09:46:47 AM 34.8567 -116.6750 50° Northeast 444 511 37,000  Level Los Angeles Center
Mon 09:47:48 AM 34.9325 -116.5597 51° Northeast 439 505 37,000  Level Los Angeles Center
Mon 09:48:50 AM 35.0103 -116.4444 51° Northeast 440 506 37,000  Level Los Angeles Center
Mon 09:49:51 AM 35.0881 -116.3281 51° Northeast 443 510 37,000  Level Los Angeles Center
Mon 09:50:53 AM 35.1822 -116.1875 51° Northeast 446 513 37,000  Level Los Angeles Center
Mon 09:51:54 AM 35.2608 -116.0714 50° Northeast 445 512 37,000  Level Los Angeles Center
Mon 09:52:56 AM 35.3375 -115.9542 51° Northeast 444 511 37,000  Level Los Angeles Center
Mon 09:53:57 AM 35.4144 -115.8381 51° Northeast 441 507 37,000  Level Los Angeles Center
Mon 09:54:59 AM 35.5031 -115.7078 50° Northeast 438 504 37,000  Level Los Angeles Center
Mon 09:56:12 AM 35.5786 -115.5936 51° Northeast 432 497 37,000  Level Los Angeles Center
Mon 09:57:14 AM 35.6700 -115.4522 51° Northeast 440 506 37,000  Level Los Angeles Center
Mon 09:58:16 AM 35.7467 -115.3344 51° Northeast 442 509 37,000  Level Los Angeles Center
Mon 09:59:17 AM 35.8222 -115.2175 51° Northeast 441 507 37,000  Level Los Angeles Center
Mon 10:00:19 AM 35.8975 -115.0986 52° Northeast 442 509 37,000  Level Los Angeles Center
Mon 10:01:21 AM 35.9881 -114.9583 51° Northeast 439 505 37,000  Level Los Angeles Center
Mon 10:02:22 AM 36.0639 -114.8403 52° Northeast 440 506 37,000  Level Los Angeles Center
Mon 10:03:24 AM 36.1403 -114.7217 51° Northeast 442 509 37,000  Level Los Angeles Center
Mon 10:04:25 AM 36.2161 -114.6033 52° Northeast 440 506 37,000  Level Los Angeles Center
Mon 10:05:27 AM 36.2917 -114.4842 52° Northeast 441 507 37,000  Level Los Angeles Center
Mon 10:06:29 AM 36.3689 -114.3653 51° Northeast 442 509 37,000  Level Los Angeles Center
Mon 10:07:30 AM 36.4442 -114.2447 52° Northeast 443 510 37,000  Level Los Angeles Center
Mon 10:08:32 AM 36.5297 -114.1100 52° Northeast 443 510 37,000  Level Los Angeles Center
Mon 10:09:34 AM 36.6067 -113.9883 52° Northeast 447 514 37,000  Level Los Angeles Center
Mon 10:10:35 AM 36.6825 -113.8661 52° Northeast 447 514 37,000  Level Los Angeles Center
Mon 10:11:37 AM 36.7589 -113.7431 52° Northeast 448 516 37,000  Level Los Angeles Center
Mon 10:12:38 AM 36.8344 -113.6217 52° Northeast 445 512 37,000  Level Los Angeles Center
Mon 10:13:40 AM 36.9253 -113.4744 52° Northeast 446 513 37,000  Level Los Angeles Center
Mon 10:14:42 AM 37.0006 -113.3522 52° Northeast 445 512 37,000  Level Los Angeles Center
Mon 10:15:43 AM 37.0756 -113.2289 53° Northeast 446 513 37,000  Level Los Angeles Center
Mon 10:16:33 AM 37.1347 -113.1319 53° Northeast 444 511 37,000  Level Salt Lake Center
Mon 10:17:34 AM 37.2089 -113.0100 53° Northeast 443 510 37,000  Level Salt Lake Center
Mon 10:18:36 AM 37.2831 -112.8881 53° Northeast 443 510 37,000  Level Salt Lake Center
Mon 10:19:37 AM 37.3708 -112.7411 53° Northeast 443 510 37,000  Level Salt Lake Center
Mon 10:20:38 AM 37.4442 -112.6186 53° Northeast 446 513 37,000  Level Salt Lake Center
Mon 10:21:40 AM 37.5178 -112.4967 53° Northeast 444 511 37,000  Level Salt Lake Center
Mon 10:22:41 AM 37.5914 -112.3742 53° Northeast 443 510 37,000  Level Salt Lake Center
Mon 10:23:43 AM 37.6639 -112.2514 53° Northeast 441 507 37,000  Level Salt Lake Center
Mon 10:24:44 AM 37.7369 -112.1289 53° Northeast 439 505 37,000  Level Salt Lake Center
Mon 10:25:46 AM 37.8083 -112.0064 54° Northeast 435 501 37,000  Level Salt Lake Center
Mon 10:26:47 AM 37.8953 -111.8594 53° Northeast 435 501 37,000  Level Salt Lake Center
Mon 10:27:48 AM 37.9669 -111.7383 53° Northeast 432 497 37,000  Level Salt Lake Center
Mon 10:28:50 AM 38.0386 -111.6150 54° Northeast 434 499 37,000  Level Salt Lake Center
Mon 10:29:51 AM 38.1136 -111.4894 53° Northeast 444 511 37,000  Level Salt Lake Center
Mon 10:30:53 AM 38.1875 -111.3636 53° Northeast 446 513 37,000  Level Salt Lake Center
Mon 10:31:54 AM 38.2592 -111.2369 54° Northeast 444 511 37,000  Level Salt Lake Center
Mon 10:32:56 AM 38.3322 -111.1100 54° Northeast 444 511 37,000  Level Salt Lake Center
Mon 10:33:58 AM 38.4058 -110.9833 53° Northeast 445 512 37,000  Level Salt Lake Center
Mon 10:34:59 AM 38.4903 -110.8339 54° Northeast 448 516 37,000  Level Salt Lake Center
Mon 10:36:01 AM 38.5606 -110.7106 54° Northeast 447 514 37,000  Level Salt Lake Center
Mon 10:36:45 AM 38.6175 -110.6047 55° Northeast 450 518 37,000  Level Denver Center
Mon 10:37:02 AM 38.6433 -110.5658 50° Northeast 452 520 37,000  Level Salt Lake Center
Mon 10:38:04 AM 38.7136 -110.4403 54° Northeast 453 521 37,000  Level Salt Lake Center
Mon 10:38:49 AM 38.7700 -110.3344 56° Northeast 451 519 37,000  Level Denver Center
Mon 10:39:51 AM 38.8389 -110.2067 55° Northeast 454 522 37,000  Level Denver Center
Mon 10:40:53 AM 38.9206 -110.0606 54° Northeast 452 520 37,000  Level Denver Center
Mon 10:41:09 AM 38.9342 -110.0419 47° Northeast 452 520 37,000  Level Salt Lake Center
Mon 10:42:10 AM 39.0169 -109.8947 54° Northeast 454 522 37,000  Level Salt Lake Center
Mon 10:42:57 AM 39.0739 -109.7853 56° Northeast 457 526 37,000  Level Denver Center
Mon 10:43:59 AM 39.1433 -109.6558 55° Northeast 458 527 37,000  Level Denver Center
Mon 10:44:14 AM 39.1683 -109.6158 51° Northeast 458 527 37,000  Level Salt Lake Center
Mon 10:45:15 AM 39.2378 -109.4889 55° Northeast 455 524 37,000  Level Salt Lake Center
Mon 10:46:17 AM 39.3186 -109.3392 55° Northeast 454 522 37,000  Level Salt Lake Center
Mon 10:47:05 AM 39.3753 -109.2319 56° Northeast 452 520 37,000  Level Denver Center
Mon 10:48:08 AM 39.4478 -109.1069 53° Northeast 454 522 37,000  Level Denver Center
Mon 10:49:10 AM 39.5153 -108.9769 56° Northeast 454 522 37,000  Level Denver Center
Mon 10:50:12 AM 39.5969 -108.8231 55° Northeast 451 519 37,000  Level Denver Center
Mon 10:51:14 AM 39.6636 -108.6986 55° Northeast 456 525 37,000  Level Denver Center
Mon 10:52:16 AM 39.7394 -108.5561 55° Northeast 455 524 37,000  Level Denver Center
Mon 10:53:18 AM 39.8203 -108.4025 56° Northeast 461 531 37,000  Level Denver Center
Mon 10:54:20 AM 39.8908 -108.2692 55° Northeast 463 533 37,000  Level Denver Center
Mon 10:55:22 AM 39.9856 -108.1397 46° Northeast 438 504 37,000  Level Denver Center
Mon 10:56:24 AM 40.0200 -107.9797 74° East 475 547 37,000  Level Denver Center
Mon 10:57:26 AM 40.0467 -107.7875 80° East 482 555 37,000  Level Denver Center
Mon 10:58:28 AM 40.0706 -107.6233 79° East 481 554 37,000  Level Denver Center
Mon 10:59:30 AM 40.0972 -107.4331 80° East 478 550 37,000  Level Denver Center
Mon 11:00:32 AM 40.1194 -107.2689 80° East 478 550 37,000  Level Denver Center
Mon 11:01:34 AM 40.1458 -107.0792 80° East 476 548 37,000 -145 Level Denver Center
Mon 11:02:36 AM 40.1678 -106.9175 80° East 472 543 36,700 -662 Descending Denver Center
Mon 11:03:50 AM 40.1883 -106.7561 80° East 469 540 35,500 -2,074 Descending Denver Center
Mon 11:04:52 AM 40.2178 -106.5375 80° East 470 541 32,000 -2,903 Descending Denver Center
Mon 11:05:54 AM 40.2419 -106.3483 80° East 480 552 29,500 -2,274 Descending Denver Center
Mon 11:06:56 AM 40.2636 -106.1875 80° East 472 543 27,300 -2,177 Descending Denver Center
Mon 11:07:58 AM 40.2836 -106.0225 81° East 456 525 25,000 -2,274 Descending Denver Center
Mon 11:09:00 AM 40.3042 -105.8625 80° East 442 509 22,600 -2,613 Descending Denver Center
Mon 11:10:02 AM 40.3261 -105.6772 81° East 437 503 19,600 -1,694 Descending Denver Center
Mon 11:11:04 AM 40.3447 -105.5275 81° East 418 481 19,100 -677 Descending Denver Center
Mon 11:12:06 AM 40.3514 -105.4028 86° East 358 412 18,200 -1,680 Descending Denver Center
Mon 11:13:09 AM 40.3322 -105.2675 100° East 353 406 15,600 -1,824 Descending Denver Center
Mon 11:14:11 AM 40.3150 -105.1453 100° East 342 394 14,400 -1,258 Descending Denver Center
Mon 11:15:13 AM 40.2992 -105.0250 100° East 335 386 13,000 -1,113 Descending Denver Center
Mon 11:16:15 AM 40.2658 -104.9131 111° Southeast 309 356 12,100 -919 Descending Denver Center
Mon 11:17:17 AM 40.2250 -104.8203 120° Southeast 295 339 11,100 -1,065 Descending Denver Center
Mon 11:18:19 AM 40.1583 -104.7683 149° Southeast 279 321 9,900 -1,161 Descending Denver Center
Mon 11:19:21 AM 40.0869 -104.7208 153° Southeast 270 311 8,700 -1,161 Descending Denver Center

Login

Don't have an account? Register now (free) for customized features, flight alerts, and more!